Time;durP1;ratioP1;P1;durP2;ratioP2;P2;SDS_P1;SDS_P2;PMS_P1;PMS_P2;Temp;Humidity;BMP_temperature;BMP_pressure;BME280_temperature;BME280_humidity;BME280_pressure;Samples;Min_cycle;Max_cycle;Signal;HPM_P1;HPM_P2
2024/03/18 00:01:04;;;;;;;;;;;;;;;;;;;;;
2024/03/18 00:04:42;;;;;;;4.60;1.60;;;;;;;2.94;62.38;100841.93;127971;1275;114934;-61
2024/03/18 00:08:09;;;;;;;3.80;2.60;;;;;;;2.91;62.52;100843.55;127550;1298;115025;-61
2024/03/18 00:11:37;;;;;;;2.90;1.70;;;;;;;2.87;62.44;100843.58;127862;1277;129330;-62
2024/03/18 00:15:13;;;;;;;;;;;;;;;;;;;;;
2024/03/18 00:18:44;;;;;;;4.10;1.70;;;;;;;2.83;62.74;100840.09;127607;1276;114962;-62
2024/03/18 00:22:08;;;;;;;3.90;1.90;;;;;;;2.77;62.55;100838.02;127753;1279;114934;-61
2024/03/18 00:25:31;;;;;;;1.80;1.10;;;;;;;2.73;62.55;100832.60;128590;1273;114898;-61
2024/03/18 00:28:39;;;;;;;2.70;1.70;;;;;;;2.67;62.52;100835.12;128521;1291;127769;-61
2024/03/18 00:31:54;;;;;;;2.40;1.70;;;;;;;2.62;62.38;100830.92;128550;1284;114718;-61
2024/03/18 00:34:58;;;;;;;2.50;1.70;;;;;;;2.57;62.25;100830.60;129459;1257;114767;-62
2024/03/18 00:38:00;;;;;;;2.00;1.40;;;;;;;2.55;62.51;100822.16;129713;1256;114724;-63
2024/03/18 00:44:39;;;;;;;1.80;0.90;;;;;;;2.53;62.47;100818.48;129666;1254;126968;-61
2024/03/18 00:47:42;;;;;;;3.50;1.20;;;;;;;2.49;62.54;100817.27;129623;1277;114756;-62
2024/03/18 00:50:50;;;;;;;1.70;1.00;;;;;;;2.48;62.72;100815.52;129931;1259;114860;-62
2024/03/18 00:53:56;;;;;;;2.20;1.30;;;;;;;2.47;62.83;100818.17;130017;1277;114772;-60
2024/03/18 00:57:07;;;;;;;1.80;1.30;;;;;;;2.45;62.83;100817.13;129890;1277;114792;-60
2024/03/18 01:00:23;;;;;;;1.90;1.10;;;;;;;2.42;62.81;100816.26;129796;1277;129066;-62
2024/03/18 01:03:29;;;;;;;4.10;1.90;;;;;;;2.41;62.98;100824.39;129887;1259;114819;-61
2024/03/18 01:06:57;;;;;;;3.70;1.30;;;;;;;2.37;62.84;100825.66;129794;1277;114809;-60
2024/03/18 01:10:02;;;;;;;2.00;1.30;;;;;;;2.32;62.98;100817.40;129795;1259;114729;-63
2024/03/18 01:13:11;;;;;;;2.10;1.50;;;;;;;2.30;63.18;100818.13;129854;1259;114724;-61
2024/03/18 01:16:20;;;;;;;2.60;1.90;;;;;;;2.29;63.40;100816.37;129791;1271;129416;-61
2024/03/18 01:19:33;;;;;;;2.30;1.10;;;;;;;2.26;63.31;100814.27;129820;1277;114819;-61
2024/03/18 01:22:36;;;;;;;1.40;0.70;;;;;;;2.22;63.09;100814.11;129637;1277;114912;-61
2024/03/18 01:25:38;;;;;;;2.10;1.60;;;;;;;2.21;63.31;100814.30;129811;1258;114809;-62
2024/03/18 01:28:41;;;;;;;2.40;0.90;;;;;;;2.19;63.46;100810.80;129863;1259;115165;-61
2024/03/18 01:31:58;;;;;;;;;;;;;;;;;;;;;
2024/03/18 01:35:56;;;;;;;;;;;;;;;;;;;;;
2024/03/18 01:39:10;;;;;;;2.40;1.60;;;;;;;2.13;63.74;100812.07;129556;1261;114959;-61
2024/03/18 01:42:15;;;;;;;3.40;2.00;;;;;;;2.13;63.78;100815.23;129749;1254;114762;-61
2024/03/18 01:45:26;;;;;;;3.00;1.80;;;;;;;2.16;64.02;100815.74;129406;1259;114927;-61
2024/03/18 01:48:28;;;;;;;3.50;2.40;;;;;;;2.15;64.14;100812.42;129781;1277;128888;-61
2024/03/18 01:52:07;;;;;;;4.80;2.40;;;;;;;2.12;63.99;100813.66;129847;1278;114805;-61
2024/03/18 01:55:11;;;;;;;4.40;2.40;;;;;;;2.11;64.36;100812.08;129793;1256;115197;-62
2024/03/18 01:58:19;;;;;;;3.60;1.80;;;;;;;2.09;64.22;100812.97;129527;1259;114791;-61
2024/03/18 02:01:26;;;;;;;5.20;2.10;;;;;;;2.07;64.16;100814.73;129858;1271;114825;-61
2024/03/18 02:04:40;;;;;;;2.90;1.50;;;;;;;2.05;64.05;100811.95;129827;1258;128591;-63
2024/03/18 02:07:48;;;;;;;2.70;1.10;;;;;;;2.04;64.16;100814.05;129597;1277;114777;-62
2024/03/18 02:11:01;;;;;;;3.50;1.70;;;;;;;2.02;64.01;100816.19;129654;1268;114811;-64
2024/03/18 02:14:15;;;;;;;3.00;1.90;;;;;;;2.01;64.26;100817.42;129828;1277;114806;-63
2024/03/18 02:17:26;;;;;;;2.50;1.10;;;;;;;1.99;63.55;100819.20;129886;1259;114767;-61
2024/03/18 02:20:29;;;;;;;1.80;1.10;;;;;;;1.95;63.56;100817.45;129950;1277;127586;-60
2024/03/18 02:23:31;;;;;;;2.50;1.90;;;;;;;1.95;63.55;100813.75;129715;1256;115282;-60
2024/03/18 02:26:34;;;;;;;2.20;1.10;;;;;;;1.95;63.47;100809.35;129836;1259;114811;-60
2024/03/18 02:29:40;;;;;;;2.30;1.60;;;;;;;1.94;63.24;100806.55;129921;1256;114725;-63
2024/03/18 02:32:52;;;;;;;;;;;;;;;;;;;;;
2024/03/18 02:36:21;;;;;;;;;;;;;;;;;;;;;
2024/03/18 02:39:24;;;;;;;2.10;1.10;;;;;;;1.84;63.06;100799.02;129548;1260;128446;-60
2024/03/18 02:42:50;;;;;;;;;;;;;;;;;;;;;
2024/03/18 02:46:03;;;;;;;2.80;1.20;;;;;;;1.79;63.14;100796.06;129174;1256;114863;-62
2024/03/18 02:49:06;;;;;;;2.30;1.10;;;;;;;1.75;63.29;100796.08;129598;1261;115007;-60
2024/03/18 02:52:08;;;;;;;2.30;1.10;;;;;;;1.69;63.25;100792.41;129696;1261;114724;-62
2024/03/18 02:55:16;;;;;;;3.50;1.10;;;;;;;1.66;63.12;100794.02;129559;1256;114797;-61
2024/03/18 02:58:22;;;;;;;1.70;0.90;;;;;;;1.64;63.30;100790.16;129712;1258;115109;-61
2024/03/18 03:01:25;;;;;;;2.10;1.00;;;;;;;1.60;63.14;100790.34;129872;1259;114849;-62
2024/03/18 03:04:38;;;;;;;;;;;;;;;;;;;;;
2024/03/18 03:07:41;;;;;;;2.50;0.90;;;;;;;1.53;63.40;100792.48;129941;1258;115108;-61
2024/03/18 03:10:43;;;;;;;2.80;1.00;;;;;;;1.45;63.08;100790.42;129901;1275;114804;-61
2024/03/18 03:13:46;;;;;;;1.60;1.20;;;;;;;1.35;63.23;100791.86;129931;1261;114794;-60
2024/03/18 03:16:48;;;;;;;2.80;0.90;;;;;;;1.24;63.38;100791.54;130004;1258;115164;-62
2024/03/18 03:19:57;;;;;;;2.50;1.50;;;;;;;1.12;62.95;100789.12;129975;1255;114878;-60
2024/03/18 03:23:00;;;;;;;2.10;1.20;;;;;;;1.02;63.28;100793.37;129654;1260;115337;-63
2024/03/18 03:26:03;;;;;;;2.80;0.90;;;;;;;0.92;63.24;100794.27;130031;1268;114765;-61
2024/03/18 03:29:08;;;;;;;3.20;1.70;;;;;;;0.82;63.25;100798.33;129895;1274;114818;-62
2024/03/18 03:32:11;;;;;;;1.80;1.20;;;;;;;0.72;63.48;100798.86;129994;1256;114948;-61
2024/03/18 03:35:14;;;;;;;2.30;1.00;;;;;;;0.61;63.41;100794.66;130048;1256;114728;-60
2024/03/18 03:38:16;;;;;;;1.90;1.00;;;;;;;0.50;63.53;100798.88;130156;1256;115283;-62
2024/03/18 03:41:19;;;;;;;2.00;0.80;;;;;;;0.38;63.62;100799.41;130011;1255;114790;-64
2024/03/18 03:44:22;;;;;;;3.50;1.00;;;;;;;0.26;63.54;100801.67;130203;1255;114649;-62
2024/03/18 03:47:24;;;;;;;1.80;0.80;;;;;;;0.15;63.70;100804.83;130032;1253;127820;-60
2024/03/18 03:50:29;;;;;;;1.90;1.00;;;;;;;0.03;63.82;100806.38;130141;1257;115143;-60
2024/03/18 03:53:35;;;;;;;1.60;0.90;;;;;;;-0.07;63.95;100807.23;130027;1256;114998;-61
2024/03/18 03:56:38;;;;;;;1.70;0.80;;;;;;;-0.18;64.08;100809.33;130136;1253;114742;-60
2024/03/18 03:59:41;;;;;;;2.60;1.80;;;;;;;-0.29;64.24;100803.67;130027;1256;114738;-60
2024/03/18 04:02:44;;;;;;;1.90;1.10;;;;;;;-0.39;64.33;100803.11;130005;1275;115133;-61
2024/03/18 04:05:47;;;;;;;4.10;1.00;;;;;;;-0.48;64.58;100797.82;130047;1255;114838;-60
2024/03/18 04:08:50;;;;;;;2.00;0.70;;;;;;;-0.57;64.82;100804.61;130081;1253;115308;-61
2024/03/18 04:11:59;;;;;;;2.30;1.50;;;;;;;-0.67;64.63;100805.28;130134;1258;114682;-60
2024/03/18 04:15:16;;;;;;;2.60;1.50;;;;;;;-0.75;64.97;100805.42;129710;1256;115730;-61
2024/03/18 04:18:44;;;;;;;;;;;;;;;;;;;;;
2024/03/18 04:21:56;;;;;;;2.30;1.30;;;;;;;-0.93;65.24;100804.98;129668;1275;128982;-60
2024/03/18 04:26:03;;;;;;;2.80;1.40;;;;;;;-1.00;65.55;100808.08;130072;1272;114736;-63
2024/03/18 04:29:44;;;;;;;;;;;;;;;;;;;;;
2024/03/18 04:33:14;;;;;;;4.20;1.90;;;;;;;-1.17;65.76;100810.42;129365;1262;114942;-62
2024/03/18 04:36:17;;;;;;;3.10;1.80;;;;;;;-1.25;65.85;100807.75;129192;1263;115256;-61
2024/03/18 04:39:20;;;;;;;2.50;1.20;;;;;;;-1.30;65.95;100804.73;129242;1264;114938;-61
2024/03/18 04:42:37;;;;;;;5.00;1.30;;;;;;;-1.35;65.91;100805.05;129379;1262;114905;-60
2024/03/18 04:45:43;;;;;;;2.90;1.60;;;;;;;-1.41;66.39;100802.38;129230;1263;114851;-62
2024/03/18 04:48:46;;;;;;;2.20;1.20;;;;;;;-1.44;66.77;100804.80;129326;1265;115026;-60
2024/03/18 04:51:49;;;;;;;3.00;1.70;;;;;;;-1.46;66.70;100807.41;129377;1276;114785;-61
2024/03/18 04:54:54;;;;;;;3.90;2.10;;;;;;;-1.45;67.07;100809.00;129271;1275;114908;-61
2024/03/18 04:57:59;;;;;;;3.50;1.60;;;;;;;-1.43;67.18;100804.98;129306;1277;114919;-61
2024/03/18 05:01:05;;;;;;;2.80;1.50;;;;;;;-1.41;67.19;100806.92;129361;1265;114843;-61
2024/03/18 05:04:10;;;;;;;2.40;1.60;;;;;;;-1.38;67.41;100803.97;129173;1260;114889;-61
2024/03/18 05:07:12;;;;;;;3.00;1.80;;;;;;;-1.34;67.05;100804.01;129652;1277;115038;-60
2024/03/18 05:10:21;;;;;;;5.00;1.30;;;;;;;-1.32;67.61;100806.99;129944;1277;114740;-61
2024/03/18 05:13:24;;;;;;;4.10;1.60;;;;;;;-1.30;67.80;100802.27;129929;1258;114710;-61
2024/03/18 05:16:28;;;;;;;4.10;1.20;;;;;;;-1.29;67.75;100805.63;130098;1258;114767;-61
2024/03/18 05:19:32;;;;;;;4.30;1.30;;;;;;;-1.27;67.48;100803.70;130029;1261;114776;-60
2024/03/18 05:22:34;;;;;;;5.30;1.30;;;;;;;-1.26;67.35;100798.81;130036;1258;114707;-62
2024/03/18 05:25:46;;;;;;;2.90;1.50;;;;;;;-1.23;67.13;100799.88;130003;1260;114745;-62
2024/03/18 05:28:49;;;;;;;3.40;1.20;;;;;;;-1.18;67.73;100802.19;130054;1258;114795;-62
2024/03/18 05:31:52;;;;;;;3.00;1.40;;;;;;;-1.15;68.18;100806.41;130130;1258;114736;-63
2024/03/18 05:34:59;;;;;;;2.00;1.20;;;;;;;-1.08;67.96;100805.23;130105;1260;114814;-62
2024/03/18 05:38:52;;;;;;;2.60;1.30;;;;;;;-1.00;68.48;100802.48;129920;1253;114753;-62
2024/03/18 05:41:54;;;;;;;2.60;1.20;;;;;;;-0.86;68.21;100802.55;130151;1259;127786;-61
2024/03/18 05:44:57;;;;;;;1.80;1.30;;;;;;;-0.74;68.50;100802.79;130284;1255;114819;-61
2024/03/18 05:47:59;;;;;;;1.70;1.10;;;;;;;-0.62;68.15;100800.39;126187;1255;5527083;-63
2024/03/18 05:51:02;;;;;;;2.90;1.30;;;;;;;-0.48;68.28;100800.27;130101;1275;115123;-61
2024/03/18 05:54:05;;;;;;;2.60;1.10;;;;;;;-0.31;68.25;100804.02;130288;1253;114754;-61
2024/03/18 05:57:08;;;;;;;3.50;1.20;;;;;;;-0.15;67.99;100803.36;130053;1256;115161;-62
2024/03/18 06:00:15;;;;;;;3.00;1.00;;;;;;;0.02;67.91;100802.52;130068;1254;114801;-61
2024/03/18 06:03:18;;;;;;;3.30;1.80;;;;;;;0.21;67.64;100802.55;130070;1275;114726;-60
2024/03/18 06:06:20;;;;;;;1.70;1.00;;;;;;;0.38;67.68;100799.58;130101;1255;114710;-61
2024/03/18 06:09:24;;;;;;;2.90;1.70;;;;;;;0.54;67.56;100800.80;130287;1255;114729;-60
2024/03/18 06:12:29;;;;;;;2.30;1.10;;;;;;;0.71;67.10;100801.50;130246;1260;115235;-60
2024/03/18 06:15:32;;;;;;;4.80;3.00;;;;;;;0.88;67.42;100801.13;129762;1260;128896;-61
2024/03/18 06:18:38;;;;;;;5.50;3.70;;;;;;;1.07;67.32;100801.79;130452;1255;114782;-60
2024/03/18 06:21:42;;;;;;;5.10;3.40;;;;;;;1.22;67.29;100797.52;130298;1256;114784;-61
2024/03/18 06:28:17;;;;;;;3.40;1.90;;;;;;;1.56;66.77;100794.23;130030;1266;114879;-62
2024/03/18 06:31:36;;;;;;;4.50;1.90;;;;;;;1.72;66.85;100795.21;130214;1275;126839;-63
2024/03/18 06:34:38;;;;;;;3.50;1.80;;;;;;;1.90;66.60;100792.13;130033;1276;114725;-61
2024/03/18 06:37:40;;;;;;;3.90;2.00;;;;;;;2.02;66.21;100791.17;130157;1269;114748;-60
2024/03/18 06:40:52;;;;;;;5.60;1.80;;;;;;;2.15;66.06;100788.44;130143;1259;114768;-64
2024/03/18 06:43:55;;;;;;;1.30;0.90;;;;;;;2.24;65.52;100788.20;130204;1276;114709;-60
2024/03/18 06:46:58;;;;;;;2.70;1.20;;;;;;;2.29;65.16;100785.34;130046;1260;114784;-61
2024/03/18 06:50:03;;;;;;;2.60;1.30;;;;;;;2.41;65.29;100781.02;130123;1266;114781;-62
2024/03/18 06:53:09;;;;;;;4.40;1.20;;;;;;;2.53;65.21;100782.86;129318;1259;115469;-62
2024/03/18 06:56:15;;;;;;;3.60;1.80;;;;;;;2.71;65.10;100780.41;128594;1260;113425;-62
2024/03/18 06:59:20;;;;;;;3.80;1.10;;;;;;;2.92;64.95;100777.55;128894;1253;113554;-63
2024/03/18 07:02:25;;;;;;;;;;;;;;;3.16;64.86;100778.00;128345;1255;113577;-62
2024/03/18 07:05:30;;;;;;;2.70;1.70;;;;;;;3.42;64.74;100771.70;128695;1257;128722;-62
2024/03/18 07:08:34;;;;;;;2.70;1.50;;;;;;;3.64;64.05;100768.94;128735;1258;114702;-63
2024/03/18 07:11:39;;;;;;;2.30;1.10;;;;;;;3.81;63.27;100768.54;128802;1255;113519;-63
2024/03/18 07:14:53;;;;;;;2.00;0.60;;;;;;;3.91;62.59;100765.92;128795;1254;113481;-63
2024/03/18 07:18:03;;;;;;;2.40;1.10;;;;;;;3.99;62.04;100766.52;128579;1257;114752;-63
2024/03/18 07:21:10;;;;;;;3.00;1.40;;;;;;;4.02;61.89;100768.77;128558;1259;128341;-62
2024/03/18 07:24:19;;;;;;;1.80;1.00;;;;;;;4.07;61.83;100767.98;128663;1259;114798;-62
2024/03/18 07:27:27;;;;;;;3.10;0.90;;;;;;;4.09;60.35;100768.32;128688;1256;113888;-62
2024/03/18 07:30:34;;;;;;;2.30;1.00;;;;;;;3.92;60.00;100768.91;128643;1253;113591;-62
2024/03/18 07:33:41;;;;;;;4.30;1.30;;;;;;;3.80;60.06;100771.90;128715;1273;114709;-61
2024/03/18 07:36:51;;;;;;;1.60;1.00;;;;;;;3.71;60.38;100773.61;128457;1253;128386;-62
2024/03/18 07:39:57;;;;;;;1.90;1.10;;;;;;;3.72;60.23;100773.61;128654;1257;114875;-63
2024/03/18 07:43:04;;;;;;;2.00;0.70;;;;;;;3.73;59.98;100772.89;128943;1257;114714;-63
2024/03/18 07:46:09;;;;;;;5.00;1.20;;;;;;;3.86;60.21;100773.77;128871;1257;114530;-60
2024/03/18 07:49:13;;;;;;;2.10;0.60;;;;;;;4.10;59.76;100765.99;128600;1261;114848;-61
2024/03/18 07:52:18;;;;;;;3.10;1.00;;;;;;;4.34;59.47;100760.83;128793;1253;129048;-63
2024/03/18 07:55:26;;;;;;;2.40;1.40;;;;;;;4.55;59.85;100764.21;128766;1257;114698;-63
2024/03/18 07:58:35;;;;;;;2.20;0.50;;;;;;;4.76;59.59;100754.63;128741;1257;114699;-62
2024/03/18 08:01:44;;;;;;;2.10;0.90;;;;;;;4.93;58.90;100756.28;129055;1255;114701;-61
2024/03/18 08:04:54;;;;;;;2.90;0.80;;;;;;;5.03;58.42;100752.55;128952;1253;114802;-63
2024/03/18 08:08:02;;;;;;;3.60;1.30;;;;;;;5.14;58.52;100754.45;128724;1256;129380;-63
2024/03/18 08:11:07;;;;;;;2.40;0.90;;;;;;;5.31;58.41;100755.18;128751;1259;114841;-62
2024/03/18 08:14:14;;;;;;;2.10;0.90;;;;;;;5.42;57.78;100751.06;128566;1258;114732;-62
2024/03/18 08:17:23;;;;;;;1.70;1.00;;;;;;;5.50;58.05;100748.42;128683;1260;114746;-63
2024/03/18 08:20:34;;;;;;;2.10;1.10;;;;;;;5.61;57.58;100746.05;128530;1260;114723;-64
2024/03/18 08:23:39;;;;;;;2.00;1.00;;;;;;;5.69;57.45;100749.23;128412;1259;126804;-62
2024/03/18 08:26:54;;;;;;;3.10;1.60;;;;;;;5.75;56.99;100747.87;128802;1258;114721;-62
2024/03/18 08:30:02;;;;;;;1.80;0.70;;;;;;;5.70;55.66;100747.79;128697;1256;114710;-61
2024/03/18 08:33:10;;;;;;;4.30;1.50;;;;;;;5.68;56.28;100745.90;128953;1262;114672;-62
2024/03/18 08:36:14;;;;;;;2.60;1.00;;;;;;;5.84;56.22;100742.71;128807;1256;115561;-63
2024/03/18 08:39:23;;;;;;;2.10;1.00;;;;;;;5.99;55.94;100741.67;128794;1253;128240;-63
2024/03/18 08:42:30;;;;;;;3.50;1.20;;;;;;;6.16;55.97;100738.98;128235;1263;114736;-64
2024/03/18 08:45:47;;;;;;;;;;;;;;;;;;;;;
2024/03/18 08:53:20;;;;;;;4.00;1.50;;;;;;;6.36;55.24;100734.23;128118;1265;114726;-62
2024/03/18 08:56:27;;;;;;;2.00;0.90;;;;;;;6.40;54.78;100734.83;128041;1268;127733;-62
2024/03/18 09:03:51;;;;;;;2.20;1.40;;;;;;;6.31;54.37;100735.77;127877;1264;113498;-62
2024/03/18 09:06:58;;;;;;;5.60;0.90;;;;;;;6.32;54.54;100736.63;127976;1269;114320;-62
2024/03/18 09:10:13;;;;;;;2.90;0.70;;;;;;;6.31;54.21;100736.66;127946;1270;114892;-62
2024/03/18 09:13:18;;;;;;;1.60;1.20;;;;;;;6.34;54.07;100737.83;127772;1264;127976;-62
2024/03/18 09:16:24;;;;;;;2.20;0.80;;;;;;;6.34;53.88;100737.11;128003;1271;114887;-63
2024/03/18 09:19:40;;;;;;;1.60;0.80;;;;;;;6.34;53.86;100734.47;128128;1272;114737;-61
2024/03/18 09:22:48;;;;;;;1.80;0.80;;;;;;;6.35;53.85;100729.98;128173;1265;114485;-62
2024/03/18 09:25:53;;;;;;;3.80;1.60;;;;;;;6.44;53.82;100730.85;128355;1254;114876;-62
2024/03/18 09:29:01;;;;;;;2.30;1.00;;;;;;;6.53;54.14;100726.17;128771;1258;128640;-63
2024/03/18 09:32:13;;;;;;;2.90;1.10;;;;;;;6.63;53.88;100725.56;128600;1258;115996;-62
2024/03/18 09:35:19;;;;;;;3.10;1.10;;;;;;;6.67;53.23;100723.34;128788;1256;114671;-63
2024/03/18 09:38:24;;;;;;;2.00;0.90;;;;;;;6.66;53.28;100723.69;128721;1264;114756;-63
2024/03/18 09:41:32;;;;;;;2.40;1.20;;;;;;;6.71;53.22;100725.18;128740;1256;114668;-62
2024/03/18 09:44:45;;;;;;;2.70;1.40;;;;;;;6.76;52.87;100723.62;128688;1254;128667;-63
2024/03/18 09:47:52;;;;;;;3.40;1.40;;;;;;;6.74;52.14;100726.36;128769;1259;114679;-62
2024/03/18 09:51:02;;;;;;;1.80;1.00;;;;;;;6.61;52.32;100717.28;128784;1254;114705;-62
2024/03/18 09:54:18;;;;;;;2.40;1.20;;;;;;;6.58;52.46;100718.59;128878;1255;114702;-62
2024/03/18 09:57:26;;;;;;;3.00;1.80;;;;;;;6.53;52.21;100718.55;128396;1262;114805;-62
2024/03/18 10:00:35;;;;;;;2.80;1.30;;;;;;;6.41;52.20;100722.04;128734;1254;128718;-63
2024/03/18 10:03:44;;;;;;;1.90;1.20;;;;;;;6.29;52.29;100720.20;128633;1260;114884;-62
2024/03/18 10:06:51;;;;;;;3.80;1.80;;;;;;;6.27;52.41;100716.01;128333;1264;114718;-63
2024/03/18 10:10:00;;;;;;;2.40;1.00;;;;;;;6.29;52.18;100712.41;128728;1257;114824;-63
2024/03/18 10:13:07;;;;;;;2.40;1.40;;;;;;;6.36;52.59;100708.52;128797;1257;113877;-62
2024/03/18 10:16:12;;;;;;;3.50;1.10;;;;;;;6.50;52.61;100705.30;128745;1257;128754;-61
2024/03/18 10:19:19;;;;;;;2.00;1.20;;;;;;;6.60;52.38;100703.11;128871;1257;114732;-62
2024/03/18 10:22:28;;;;;;;2.40;1.00;;;;;;;6.69;52.17;100698.23;128815;1255;114767;-63
2024/03/18 10:25:40;;;;;;;3.10;1.50;;;;;;;6.77;52.11;100699.98;128722;1255;114726;-61
2024/03/18 10:28:51;;;;;;;5.70;1.50;;;;;;;6.89;52.13;100698.77;128519;1260;114936;-60
2024/03/18 10:32:04;;;;;;;3.40;1.50;;;;;;;7.03;51.86;100694.45;128710;1253;127662;-60
2024/03/18 10:35:27;;;;;;;4.40;2.20;;;;;;;7.16;52.09;100690.01;128635;1256;114034;-61
2024/03/18 10:38:42;;;;;;;4.90;1.70;;;;;;;7.25;51.47;100692.05;128719;1260;114707;-60
2024/03/18 10:41:50;;;;;;;3.20;2.30;;;;;;;7.25;51.43;100689.91;128779;1254;114669;-61
2024/03/18 10:45:24;;;;;;;5.30;1.20;;;;;;;7.29;51.46;100685.90;128789;1257;115299;-62
2024/03/18 10:53:18;;;;;;;3.20;1.80;;;;;;;7.12;51.02;100690.66;128108;1263;115604;-62
2024/03/18 10:56:28;;;;;;;2.90;1.20;;;;;;;7.13;51.00;100689.75;128163;1264;114750;-62
2024/03/18 10:59:36;;;;;;;3.60;1.10;;;;;;;7.09;50.55;100687.55;128188;1273;114404;-61
2024/03/18 11:03:00;;;;;;;2.40;0.90;;;;;;;7.14;50.90;100688.64;128094;1261;114878;-62
2024/03/18 11:06:08;;;;;;;4.60;2.30;;;;;;;7.22;50.82;100684.52;128190;1260;127684;-62
2024/03/18 11:09:20;;;;;;;3.10;1.60;;;;;;;7.29;50.96;100683.43;128210;1263;114899;-60
2024/03/18 11:12:34;;;;;;;2.40;0.90;;;;;;;7.33;50.29;100686.15;128242;1263;114999;-61
2024/03/18 11:15:41;;;;;;;4.20;1.40;;;;;;;7.34;50.60;100685.06;128249;1264;114867;-62
2024/03/18 11:18:48;;;;;;;1.60;0.70;;;;;;;7.28;50.19;100682.19;128154;1260;114821;-62
2024/03/18 11:22:06;;;;;;;7.20;2.30;;;;;;;7.15;49.68;100675.47;128262;1254;128137;-62
2024/03/18 11:25:23;;;;;;;5.10;1.50;;;;;;;7.04;49.90;100676.88;128490;1257;114734;-62
2024/03/18 11:28:37;;;;;;;3.80;2.00;;;;;;;7.05;49.87;100673.09;128742;1257;114772;-62
2024/03/18 11:31:51;;;;;;;3.90;1.50;;;;;;;6.98;49.86;100673.10;128634;1260;114217;-62
2024/03/18 11:35:06;;;;;;;3.20;1.20;;;;;;;7.01;50.23;100676.41;128530;1254;114961;-62
2024/03/18 11:38:18;;;;;;;8.20;2.80;;;;;;;7.09;50.18;100672.81;128630;1253;128298;-62
2024/03/18 11:41:28;;;;;;;2.50;1.30;;;;;;;7.13;49.96;100673.23;128719;1256;114835;-62
2024/03/18 11:44:35;;;;;;;6.60;2.70;;;;;;;7.04;49.31;100670.82;128704;1257;115748;-62
2024/03/18 11:47:40;;;;;;;2.90;1.10;;;;;;;7.01;49.68;100667.54;128796;1254;114733;-62
2024/03/18 11:50:46;;;;;;;1.60;1.30;;;;;;;7.07;49.91;100662.73;128747;1264;113677;-62
2024/03/18 11:53:52;;;;;;;2.90;1.50;;;;;;;7.13;49.58;100666.46;128798;1253;128677;-62
2024/03/18 11:57:04;;;;;;;1.60;1.10;;;;;;;7.06;49.17;100662.58;129744;1254;114885;-62
2024/03/18 12:00:14;;;;;;;2.50;1.40;;;;;;;6.96;49.13;100660.38;128715;1257;114718;-62
2024/03/18 12:03:22;;;;;;;2.00;1.30;;;;;;;6.91;49.04;100654.33;128661;1257;113876;-61
2024/03/18 12:06:35;;;;;;;2.90;1.20;;;;;;;6.84;49.04;100650.96;128655;1257;114856;-61
2024/03/18 12:09:42;;;;;;;1.80;1.00;;;;;;;6.87;49.33;100650.17;128730;1254;127869;-62
2024/03/18 12:12:48;;;;;;;2.80;1.30;;;;;;;6.93;49.26;100647.89;128774;1254;114275;-59
2024/03/18 12:15:56;;;;;;;3.50;1.20;;;;;;;6.91;48.76;100649.00;128773;1257;114724;-62
2024/03/18 12:19:08;;;;;;;3.20;1.40;;;;;;;6.83;49.26;100647.62;128812;1253;114736;-61
2024/03/18 12:22:29;;;;;;;4.00;1.90;;;;;;;6.93;49.42;100646.07;128747;1257;114911;-61
2024/03/18 12:29:03;;;;;;;3.00;1.50;;;;;;;6.95;49.28;100648.34;128754;1257;114791;-62
2024/03/18 12:32:18;;;;;;;2.70;1.40;;;;;;;7.00;49.44;100643.05;128803;1256;114696;-63
2024/03/18 12:35:23;;;;;;;2.90;1.80;;;;;;;7.11;49.49;100645.02;128810;1254;115386;-63
2024/03/18 12:38:42;;;;;;;3.20;1.30;;;;;;;7.18;49.46;100644.33;128759;1254;114907;-63
2024/03/18 12:41:53;;;;;;;2.20;1.10;;;;;;;7.19;49.03;100640.19;128804;1253;128748;-63
2024/03/18 12:44:59;;;;;;;2.60;1.20;;;;;;;7.14;48.91;100635.54;128771;1256;114675;-63
2024/03/18 12:48:09;;;;;;;2.60;1.20;;;;;;;7.19;49.34;100634.34;128729;1253;114731;-64
2024/03/18 12:51:20;;;;;;;;;;;;;;;7.20;48.93;100633.55;128836;1256;114692;-63
2024/03/18 12:54:26;;;;;;;2.40;1.50;;;;;;;7.27;49.22;100633.20;128759;1252;114806;-64
2024/03/18 12:57:42;;;;;;;;;;;;;;;;;;;;;
2024/03/18 13:05:17;;;;;;;4.60;2.00;;;;;;;7.55;48.68;100633.93;128758;1253;114700;-64
2024/03/18 13:08:29;;;;;;;2.70;1.10;;;;;;;7.62;49.08;100637.80;128817;1256;114710;-63
2024/03/18 13:16:20;;;;;;;3.10;1.60;;;;;;;7.69;48.60;100629.92;128110;1260;129699;-64
2024/03/18 13:19:31;;;;;;;3.20;2.00;;;;;;;7.73;48.73;100625.52;128140;1264;114802;-62
2024/03/18 13:22:43;;;;;;;2.30;1.80;;;;;;;7.70;48.32;100623.15;127760;1263;114898;-64
2024/03/18 13:25:59;;;;;;;3.40;1.40;;;;;;;7.69;48.46;100621.94;131180;1260;114749;-63
2024/03/18 13:29:04;;;;;;;2.70;1.40;;;;;;;7.75;48.51;100624.06;128190;1263;114792;-63
2024/03/18 13:32:34;;;;;;;4.00;2.30;;;;;;;7.79;48.34;100623.59;128199;1260;127776;-64
2024/03/18 13:35:46;;;;;;;3.80;2.50;;;;;;;7.84;48.45;100622.71;128245;1263;115217;-64
2024/03/18 13:38:54;;;;;;;2.70;1.40;;;;;;;7.86;48.33;100626.00;128216;1263;114678;-64
2024/03/18 13:46:26;;;;;;;3.60;1.30;;;;;;;7.85;48.25;100619.48;128019;1259;115018;-64
2024/03/18 13:49:35;;;;;;;4.40;1.90;;;;;;;7.85;48.16;100619.29;131132;1260;127735;-63
2024/03/18 13:52:43;;;;;;;2.60;1.40;;;;;;;7.80;47.97;100616.23;131417;1254;114830;-64
2024/03/18 13:55:47;;;;;;;2.40;1.30;;;;;;;7.80;47.96;100613.58;128759;1254;113520;-62
2024/03/18 13:58:54;;;;;;;2.30;1.60;;;;;;;7.81;47.93;100612.67;128671;1258;114738;-64
2024/03/18 14:01:57;;;;;;;3.20;1.60;;;;;;;7.83;47.89;100609.02;131684;1254;114458;-62
2024/03/18 14:05:02;;;;;;;3.40;1.80;;;;;;;7.85;48.01;100607.02;128750;1254;128893;-62
2024/03/18 14:08:10;;;;;;;4.00;1.50;;;;;;;7.83;47.48;100612.24;128708;1257;114784;-63
2024/03/18 14:11:17;;;;;;;2.00;1.30;;;;;;;7.70;47.48;100613.36;128589;1260;114807;-62
2024/03/18 14:14:23;;;;;;;3.70;1.60;;;;;;;7.60;47.51;100610.52;128429;1257;114910;-62
2024/03/18 14:17:30;;;;;;;5.20;2.00;;;;;;;7.54;47.84;100611.75;128650;1257;114701;-63
2024/03/18 14:20:33;;;;;;;;;;;;;;;7.46;48.02;100615.55;128674;1254;127904;-62
2024/03/18 14:23:41;;;;;;;2.50;1.60;;;;;;;7.38;47.96;100617.94;128656;1255;114954;-63
2024/03/18 14:26:46;;;;;;;2.50;1.40;;;;;;;7.20;47.46;100621.85;128702;1257;114883;-62
2024/03/18 14:29:51;;;;;;;4.20;1.90;;;;;;;7.05;47.76;100618.77;128734;1254;114723;-64
2024/03/18 14:32:55;;;;;;;5.10;3.10;;;;;;;6.98;47.90;100621.80;128736;1257;114813;-63
2024/03/18 14:36:05;;;;;;;2.90;2.20;;;;;;;6.95;47.99;100622.75;128722;1253;128105;-62
2024/03/18 14:39:12;;;;;;;;;;;;;;;6.92;47.78;100621.98;128706;1253;114680;-62
2024/03/18 14:42:16;;;;;;;3.70;2.30;;;;;;;6.85;47.90;100621.29;128753;1257;114722;-62
2024/03/18 14:45:32;;;;;;;3.40;1.30;;;;;;;6.79;48.02;100616.85;128760;1256;114691;-62
2024/03/18 14:48:44;;;;;;;3.00;1.80;;;;;;;6.75;47.80;100615.36;128693;1257;114744;-62
2024/03/18 14:51:50;;;;;;;3.90;2.20;;;;;;;6.67;47.70;100616.29;128807;1253;127711;-62
2024/03/18 14:54:56;;;;;;;3.00;1.70;;;;;;;6.57;47.73;100619.77;128642;1253;115644;-63
2024/03/18 15:02:40;;;;;;;3.20;1.90;;;;;;;6.51;48.45;100618.50;128187;1259;114755;-63
2024/03/18 15:05:52;;;;;;;3.90;2.10;;;;;;;6.47;48.48;100615.61;128111;1258;114307;-63
2024/03/18 15:13:57;;;;;;;3.80;2.40;;;;;;;6.46;48.73;100615.63;127689;1263;114709;-63
2024/03/18 15:21:27;;;;;;;5.00;3.10;;;;;;;6.48;48.94;100616.99;127704;1264;114912;-63
2024/03/18 15:24:49;;;;;;;;;;;;;;;6.45;48.72;100619.22;127652;1267;114919;-64
2024/03/18 15:27:57;;;;;;;4.30;2.50;;;;;;;6.33;48.68;100622.20;127629;1264;127546;-62
2024/03/18 15:31:09;;;;;;;;;;;;;;;6.27;48.97;100618.48;127689;1267;114703;-63
2024/03/18 15:34:16;;;;;;;4.30;2.70;;;;;;;6.22;49.16;100616.80;127849;1264;114820;-64
2024/03/18 15:37:20;;;;;;;4.60;1.90;;;;;;;6.22;49.18;100618.94;127696;1267;114313;-63
2024/03/18 15:40:30;;;;;;;3.60;1.80;;;;;;;6.20;49.36;100615.45;127649;1270;114915;-64
2024/03/18 15:43:36;;;;;;;6.00;3.70;;;;;;;6.17;49.33;100613.20;127619;1263;128820;-63